Martin State Airport

Airport
ICAO code: 
KMTN
Summary
ICAO Region: 
NAM
Territory: 
Location: 
Baltimore/Middle River, Maryland,
Coordinates: 
Aerial View: 
39° 19' 31.994" N, 76° 24' 49.993" W
Airport WX: 
Cumulonimbus
Metar
Observation
KMTN 040755Z AUTO 00000KT 10SM OVC080 07/02 A3011 RMK AO2
Station
Baltimore / Martin
Date/Time
2021-12-04 07:55:00
Wind direction
Wind speed
00 kts
Lowest cloud amount
overcast
Temperature
7°C
Dew point
2°C
Humidity
70%
Weather condition
n/a

Description

Martin State Airport is a joint civil-military (ANG) public use airport located 17 km east of the central business district of Baltimore, in Baltimore County, Maryland.

Climatology

Humid “subtropical” climate (Köppen climate classification Cfa) - characterized by hot, humid summers and cool winters. Significant amounts of precipitation occur in all seasons in most areas. Winter rainfall (and sometimes snowfall) is associated with large storms that the westerlies steer from west to east. Most summer rainfall occurs during thunderstorms and occasional tropical storms (hurricanes).

Runways

Designator Length Width Surface Rops
15/33 2132 55 CON Yes/Yes
Airport map: 
Aerial View: 

SKYbrary Partners:

Safety knowledge contributed by: